sensor_id;sensor_type;location;lat;lon;timestamp;pressure;altitude;pressure_sealevel;temperature;humidity
43125;BME280;49182;50.788;7.318;2022-12-26T00:00:59;100379.13;;;13.00;79.28
43125;BME280;49182;50.788;7.318;2022-12-26T00:03:26;100379.97;;;13.00;79.15
43125;BME280;49182;50.788;7.318;2022-12-26T00:05:53;100376.47;;;13.00;79.48
43125;BME280;49182;50.788;7.318;2022-12-26T00:08:19;100379.97;;;13.00;79.43
43125;BME280;49182;50.788;7.318;2022-12-26T00:10:47;100299.97;;;12.53;79.66
43125;BME280;49182;50.788;7.318;2022-12-26T00:13:14;100379.59;;;12.95;79.69
43125;BME280;49182;50.788;7.318;2022-12-26T00:16:05;100376.41;;;12.91;80.16
43125;BME280;49182;50.788;7.318;2022-12-26T00:18:32;100360.78;;;12.80;80.54
43125;BME280;49182;50.788;7.318;2022-12-26T00:21:01;100371.88;;;12.84;80.77
43125;BME280;49182;50.788;7.318;2022-12-26T00:23:27;100381.56;;;12.93;80.55
43125;BME280;49182;50.788;7.318;2022-12-26T00:26:01;100391.81;;;12.88;80.47
43125;BME280;49182;50.788;7.318;2022-12-26T00:28:27;100396.56;;;12.84;80.96
43125;BME280;49182;50.788;7.318;2022-12-26T00:30:54;100404.69;;;12.83;81.02
43125;BME280;49182;50.788;7.318;2022-12-26T00:33:20;100396.06;;;12.81;81.46
43125;BME280;49182;50.788;7.318;2022-12-26T00:35:47;100382.06;;;12.71;81.65
43125;BME280;49182;50.788;7.318;2022-12-26T00:38:13;100392.88;;;12.77;81.67
43125;BME280;49182;50.788;7.318;2022-12-26T00:40:40;100390.25;;;12.77;81.86
43125;BME280;49182;50.788;7.318;2022-12-26T00:43:08;100397.19;;;12.78;81.75
43125;BME280;49182;50.788;7.318;2022-12-26T00:45:35;100397.72;;;12.82;82.29
43125;BME280;49182;50.788;7.318;2022-12-26T00:48:02;100368.91;;;12.61;82.32
43125;BME280;49182;50.788;7.318;2022-12-26T00:50:28;100357.19;;;12.46;83.00
43125;BME280;49182;50.788;7.318;2022-12-26T00:53:00;100397.56;;;12.66;83.98
43125;BME280;49182;50.788;7.318;2022-12-26T00:55:27;100394.56;;;12.61;83.51
43125;BME280;49182;50.788;7.318;2022-12-26T00:57:54;100400.16;;;12.57;83.86
43125;BME280;49182;50.788;7.318;2022-12-26T01:00:22;100394.69;;;12.59;84.14
43125;BME280;49182;50.788;7.318;2022-12-26T01:02:49;100392.50;;;12.54;84.40
43125;BME280;49182;50.788;7.318;2022-12-26T01:05:16;100396.75;;;12.47;84.85
43125;BME280;49182;50.788;7.318;2022-12-26T01:07:42;100362.78;;;12.25;84.80
43125;BME280;49182;50.788;7.318;2022-12-26T01:10:29;100401.16;;;12.39;85.36
43125;BME280;49182;50.788;7.318;2022-12-26T01:12:55;100409.56;;;12.34;85.24
43125;BME280;49182;50.788;7.318;2022-12-26T01:15:23;100407.06;;;12.33;85.70
43125;BME280;49182;50.788;7.318;2022-12-26T01:17:50;100420.56;;;12.30;86.11
43125;BME280;49182;50.788;7.318;2022-12-26T01:20:17;100421.31;;;12.22;86.38
43125;BME280;49182;50.788;7.318;2022-12-26T01:22:43;100441.13;;;12.18;86.97
43125;BME280;49182;50.788;7.318;2022-12-26T01:25:10;100426.50;;;11.96;87.55
43125;BME280;49182;50.788;7.318;2022-12-26T01:27:37;100458.75;;;12.09;88.04
43125;BME280;49182;50.788;7.318;2022-12-26T01:30:05;100444.72;;;11.99;88.73
43125;BME280;49182;50.788;7.318;2022-12-26T01:32:34;100424.34;;;11.82;88.39
43125;BME280;49182;50.788;7.318;2022-12-26T01:35:00;100447.94;;;12.03;88.09
43125;BME280;49182;50.788;7.318;2022-12-26T01:37:27;100422.94;;;11.88;87.93
43125;BME280;49182;50.788;7.318;2022-12-26T01:39:54;100445.88;;;11.97;87.90
43125;BME280;49182;50.788;7.318;2022-12-26T01:42:23;100445.31;;;11.93;87.84
43125;BME280;49182;50.788;7.318;2022-12-26T01:44:57;100450.75;;;11.92;87.87
43125;BME280;49182;50.788;7.318;2022-12-26T01:47:30;100456.22;;;11.90;87.97
43125;BME280;49182;50.788;7.318;2022-12-26T01:50:04;100449.38;;;11.88;88.03
43125;BME280;49182;50.788;7.318;2022-12-26T01:52:36;100447.84;;;11.85;88.53
43125;BME280;49182;50.788;7.318;2022-12-26T01:55:05;100449.69;;;11.85;88.61
43125;BME280;49182;50.788;7.318;2022-12-26T01:57:38;100443.69;;;11.83;88.37
43125;BME280;49182;50.788;7.318;2022-12-26T02:00:07;100440.22;;;11.82;88.45
43125;BME280;49182;50.788;7.318;2022-12-26T02:02:40;100382.75;;;11.38;89.04
43125;BME280;49182;50.788;7.318;2022-12-26T02:05:09;100445.50;;;11.82;88.71
43125;BME280;49182;50.788;7.318;2022-12-26T02:07:39;100438.69;;;11.80;88.39
43125;BME280;49182;50.788;7.318;2022-12-26T02:10:08;100449.84;;;11.73;88.86
43125;BME280;49182;50.788;7.318;2022-12-26T02:12:37;100445.41;;;11.74;88.97
43125;BME280;49182;50.788;7.318;2022-12-26T02:15:07;100441.78;;;11.75;89.31
43125;BME280;49182;50.788;7.318;2022-12-26T02:17:34;100448.88;;;11.74;89.47
43125;BME280;49182;50.788;7.318;2022-12-26T02:20:12;100454.59;;;11.70;89.68
43125;BME280;49182;50.788;7.318;2022-12-26T02:23:24;100465.44;;;11.67;89.11
43125;BME280;49182;50.788;7.318;2022-12-26T02:32:19;100466.13;;;11.69;89.86
43125;BME280;49182;50.788;7.318;2022-12-26T02:34:53;100469.63;;;11.69;90.21
43125;BME280;49182;50.788;7.318;2022-12-26T02:37:30;100472.41;;;11.68;90.58
43125;BME280;49182;50.788;7.318;2022-12-26T02:40:27;100465.59;;;11.65;91.06
43125;BME280;49182;50.788;7.318;2022-12-26T02:42:57;100455.44;;;11.61;91.01
43125;BME280;49182;50.788;7.318;2022-12-26T02:45:29;100458.06;;;11.61;91.33
43125;BME280;49182;50.788;7.318;2022-12-26T02:48:05;100453.34;;;11.64;91.72
43125;BME280;49182;50.788;7.318;2022-12-26T02:50:41;100461.88;;;11.49;91.99
43125;BME280;49182;50.788;7.318;2022-12-26T02:53:15;100476.78;;;11.50;92.48
43125;BME280;49182;50.788;7.318;2022-12-26T02:55:48;100464.03;;;11.35;93.08
43125;BME280;49182;50.788;7.318;2022-12-26T02:58:21;100483.72;;;11.51;92.80
43125;BME280;49182;50.788;7.318;2022-12-26T03:00:54;100474.38;;;11.56;92.79
43125;BME280;49182;50.788;7.318;2022-12-26T03:03:28;100484.97;;;11.56;93.06
43125;BME280;49182;50.788;7.318;2022-12-26T03:05:59;100477.59;;;11.50;93.12
43125;BME280;49182;50.788;7.318;2022-12-26T03:08:30;100474.03;;;11.42;93.63
43125;BME280;49182;50.788;7.318;2022-12-26T03:10:58;100461.53;;;11.34;94.56
43125;BME280;49182;50.788;7.318;2022-12-26T03:13:28;100461.78;;;11.31;95.16
43125;BME280;49182;50.788;7.318;2022-12-26T03:16:00;100468.22;;;11.28;95.18
43125;BME280;49182;50.788;7.318;2022-12-26T03:18:30;100466.53;;;11.27;95.47
43125;BME280;49182;50.788;7.318;2022-12-26T03:21:21;100468.47;;;11.25;95.61
43125;BME280;49182;50.788;7.318;2022-12-26T03:23:50;100362.66;;;10.61;95.50
43125;BME280;49182;50.788;7.318;2022-12-26T03:26:21;100466.69;;;11.26;95.79
43125;BME280;49182;50.788;7.318;2022-12-26T03:28:50;100470.28;;;11.25;96.20
43125;BME280;49182;50.788;7.318;2022-12-26T03:31:16;100466.97;;;11.23;96.63
43125;BME280;49182;50.788;7.318;2022-12-26T03:33:46;100467.66;;;11.25;96.35
43125;BME280;49182;50.788;7.318;2022-12-26T03:36:14;100452.09;;;11.22;96.76
43125;BME280;49182;50.788;7.318;2022-12-26T03:38:52;100457.38;;;11.22;96.78
43125;BME280;49182;50.788;7.318;2022-12-26T03:41:26;100456.97;;;11.17;96.92
43125;BME280;49182;50.788;7.318;2022-12-26T03:44:04;100464.75;;;11.09;97.69
43125;BME280;49182;50.788;7.318;2022-12-26T03:46:43;100472.97;;;11.06;97.83
43125;BME280;49182;50.788;7.318;2022-12-26T03:49:18;100470.47;;;11.04;98.40
43125;BME280;49182;50.788;7.318;2022-12-26T03:51:52;100477.69;;;11.02;98.63
43125;BME280;49182;50.788;7.318;2022-12-26T03:54:27;100483.81;;;11.03;98.68
43125;BME280;49182;50.788;7.318;2022-12-26T03:57:00;100460.88;;;10.93;99.13
43125;BME280;49182;50.788;7.318;2022-12-26T03:59:34;100481.44;;;11.00;99.40
43125;BME280;49182;50.788;7.318;2022-12-26T04:02:04;100481.44;;;11.00;99.35
43125;BME280;49182;50.788;7.318;2022-12-26T04:04:36;100461.03;;;10.82;99.15
43125;BME280;49182;50.788;7.318;2022-12-26T04:07:10;100472.84;;;10.98;99.56
43125;BME280;49182;50.788;7.318;2022-12-26T04:09:41;100462.41;;;10.96;99.24
43125;BME280;49182;50.788;7.318;2022-12-26T04:14:41;100465.75;;;10.88;100.00
43125;BME280;49182;50.788;7.318;2022-12-26T04:17:16;100471.19;;;10.77;100.00
43125;BME280;49182;50.788;7.318;2022-12-26T04:19:55;100487.16;;;10.85;100.00
43125;BME280;49182;50.788;7.318;2022-12-26T04:22:32;100472.56;;;10.72;100.00
43125;BME280;49182;50.788;7.318;2022-12-26T04:25:04;100495.34;;;10.82;100.00
43125;BME280;49182;50.788;7.318;2022-12-26T04:27:33;100498.72;;;10.84;100.00
43125;BME280;49182;50.788;7.318;2022-12-26T04:30:00;100501.06;;;10.87;100.00
43125;BME280;49182;50.788;7.318;2022-12-26T04:32:33;100494.94;;;10.87;100.00
43125;BME280;49182;50.788;7.318;2022-12-26T04:35:06;100487.16;;;10.85;100.00
43125;BME280;49182;50.788;7.318;2022-12-26T04:37:39;100495.22;;;10.84;100.00
43125;BME280;49182;50.788;7.318;2022-12-26T04:40:10;100487.16;;;10.85;100.00
43125;BME280;49182;50.788;7.318;2022-12-26T04:42:42;100471.19;;;10.77;100.00
43125;BME280;49182;50.788;7.318;2022-12-26T04:45:10;100484.91;;;10.81;100.00
43125;BME280;49182;50.788;7.318;2022-12-26T04:47:38;100482.41;;;10.70;100.00
43125;BME280;49182;50.788;7.318;2022-12-26T04:50:07;100493.41;;;10.75;100.00
43125;BME280;49182;50.788;7.318;2022-12-26T04:52:33;100493.28;;;10.76;100.00
43125;BME280;49182;50.788;7.318;2022-12-26T04:55:00;100490.22;;;10.71;100.00
43125;BME280;49182;50.788;7.318;2022-12-26T04:57:27;100495.38;;;10.73;100.00
43125;BME280;49182;50.788;7.318;2022-12-26T04:59:53;100503.28;;;10.73;100.00
43125;BME280;49182;50.788;7.318;2022-12-26T05:02:20;100503.28;;;10.73;100.00
43125;BME280;49182;50.788;7.318;2022-12-26T05:04:46;100491.88;;;10.63;100.00
43125;BME280;49182;50.788;7.318;2022-12-26T05:07:18;100509.13;;;10.67;100.00
43125;BME280;49182;50.788;7.318;2022-12-26T05:09:48;100504.94;;;10.64;100.00
43125;BME280;49182;50.788;7.318;2022-12-26T05:12:15;100494.78;;;10.69;100.00
43125;BME280;49182;50.788;7.318;2022-12-26T05:14:42;100499.09;;;10.70;100.00
43125;BME280;49182;50.788;7.318;2022-12-26T05:17:09;100489.63;;;10.68;100.00
43125;BME280;49182;50.788;7.318;2022-12-26T05:19:36;100493.53;;;10.64;100.00
43125;BME280;49182;50.788;7.318;2022-12-26T05:22:03;100503.56;;;10.60;100.00
43125;BME280;49182;50.788;7.318;2022-12-26T05:24:39;100500.22;;;10.58;100.00
43125;BME280;49182;50.788;7.318;2022-12-26T05:27:10;100506.75;;;10.54;100.00
43125;BME280;49182;50.788;7.318;2022-12-26T05:29:39;100505.63;;;10.57;100.00
43125;BME280;49182;50.788;7.318;2022-12-26T05:32:05;100472.94;;;10.38;100.00
43125;BME280;49182;50.788;7.318;2022-12-26T05:34:32;100512.56;;;10.58;100.00
43125;BME280;49182;50.788;7.318;2022-12-26T05:36:59;100511.72;;;10.57;100.00
43125;BME280;49182;50.788;7.318;2022-12-26T05:39:25;100492.56;;;10.65;100.00
43125;BME280;49182;50.788;7.318;2022-12-26T05:41:54;100502.28;;;10.64;100.00
43125;BME280;49182;50.788;7.318;2022-12-26T05:44:20;100506.56;;;10.55;100.00
43125;BME280;49182;50.788;7.318;2022-12-26T05:46:47;100505.19;;;10.51;100.00
43125;BME280;49182;50.788;7.318;2022-12-26T05:49:14;100497.94;;;10.44;100.00
43125;BME280;49182;50.788;7.318;2022-12-26T05:51:41;100502.00;;;10.48;100.00
43125;BME280;49182;50.788;7.318;2022-12-26T05:54:07;100502.13;;;10.46;100.00
43125;BME280;49182;50.788;7.318;2022-12-26T05:56:34;100508.97;;;10.49;100.00
43125;BME280;49182;50.788;7.318;2022-12-26T05:59:02;100510.47;;;10.51;100.00
43125;BME280;49182;50.788;7.318;2022-12-26T06:01:29;100507.16;;;10.59;100.00
43125;BME280;49182;50.788;7.318;2022-12-26T06:03:57;100511.19;;;10.63;100.00
43125;BME280;49182;50.788;7.318;2022-12-26T06:06:25;100515.78;;;10.71;100.00
43125;BME280;49182;50.788;7.318;2022-12-26T06:08:54;100508.69;;;10.71;100.00
43125;BME280;49182;50.788;7.318;2022-12-26T06:11:21;100508.97;;;10.68;100.00
43125;BME280;49182;50.788;7.318;2022-12-26T06:13:48;100513.28;;;10.69;100.00
43125;BME280;49182;50.788;7.318;2022-12-26T06:16:17;100518.84;;;10.66;100.00
43125;BME280;49182;50.788;7.318;2022-12-26T06:18:45;100499.38;;;10.58;100.00
43125;BME280;49182;50.788;7.318;2022-12-26T06:21:16;100497.56;;;10.58;100.00
43125;BME280;49182;50.788;7.318;2022-12-26T06:23:43;100535.09;;;10.71;100.00
43125;BME280;49182;50.788;7.318;2022-12-26T06:26:10;100500.22;;;10.58;100.00
43125;BME280;49182;50.788;7.318;2022-12-26T06:28:37;100523.28;;;10.66;100.00
43125;BME280;49182;50.788;7.318;2022-12-26T06:31:06;100545.25;;;10.76;100.00
43125;BME280;49182;50.788;7.318;2022-12-26T06:33:35;100542.19;;;10.80;100.00
43125;BME280;49182;50.788;7.318;2022-12-26T06:36:03;100540.25;;;10.82;100.00
43125;BME280;49182;50.788;7.318;2022-12-26T06:38:30;100553.75;;;10.79;100.00
43125;BME280;49182;50.788;7.318;2022-12-26T06:40:57;100547.09;;;10.85;100.00
43125;BME280;49182;50.788;7.318;2022-12-26T06:43:23;100562.22;;;10.83;100.00
43125;BME280;49182;50.788;7.318;2022-12-26T06:45:53;100568.19;;;10.75;100.00
43125;BME280;49182;50.788;7.318;2022-12-26T06:48:21;100580.28;;;10.78;100.00
43125;BME280;49182;50.788;7.318;2022-12-26T06:50:49;100601.84;;;10.83;100.00
43125;BME280;49182;50.788;7.318;2022-12-26T06:53:16;100596.13;;;10.87;100.00
43125;BME280;49182;50.788;7.318;2022-12-26T06:55:43;100581.69;;;10.82;99.69
43125;BME280;49182;50.788;7.318;2022-12-26T06:58:09;100568.72;;;10.69;98.44
43125;BME280;49182;50.788;7.318;2022-12-26T07:00:36;100573.03;;;10.70;98.35
43125;BME280;49182;50.788;7.318;2022-12-26T07:03:02;100575.69;;;10.70;98.56
43125;BME280;49182;50.788;7.318;2022-12-26T07:05:29;100573.03;;;10.70;98.54
43125;BME280;49182;50.788;7.318;2022-12-26T07:07:57;100555.94;;;10.65;97.67
43125;BME280;49182;50.788;7.318;2022-12-26T07:10:24;100554.81;;;10.58;97.74
43125;BME280;49182;50.788;7.318;2022-12-26T07:12:51;100564.94;;;10.62;96.32
43125;BME280;49182;50.788;7.318;2022-12-26T07:15:17;100566.75;;;10.62;96.41
43125;BME280;49182;50.788;7.318;2022-12-26T07:17:44;100568.13;;;10.56;96.99
43125;BME280;49182;50.788;7.318;2022-12-26T07:20:11;100569.81;;;10.57;97.23
43125;BME280;49182;50.788;7.318;2022-12-26T07:22:38;100564.81;;;10.54;97.65
43125;BME280;49182;50.788;7.318;2022-12-26T07:25:06;100569.13;;;10.55;97.61
43125;BME280;49182;50.788;7.318;2022-12-26T07:27:33;100567.28;;;10.55;97.73
43125;BME280;49182;50.788;7.318;2022-12-26T07:30:00;100577.06;;;10.55;97.79
43125;BME280;49182;50.788;7.318;2022-12-26T07:32:27;100598.44;;;10.52;98.68
43125;BME280;49182;50.788;7.318;2022-12-26T07:34:53;100602.69;;;10.43;99.43
43125;BME280;49182;50.788;7.318;2022-12-26T07:37:20;100604.06;;;10.38;100.00
43125;BME280;49182;50.788;7.318;2022-12-26T07:39:46;100609.34;;;10.38;100.00
43125;BME280;49182;50.788;7.318;2022-12-26T07:42:18;100617.53;;;10.35;100.00
43125;BME280;49182;50.788;7.318;2022-12-26T07:44:46;100612.25;;;10.35;100.00
43125;BME280;49182;50.788;7.318;2022-12-26T07:47:15;100613.22;;;10.34;100.00
43125;BME280;49182;50.788;7.318;2022-12-26T07:49:41;100609.03;;;10.31;100.00
43125;BME280;49182;50.788;7.318;2022-12-26T07:52:08;100508.47;;;9.64;100.00
43125;BME280;49182;50.788;7.318;2022-12-26T07:54:35;100595.25;;;10.18;100.00
43125;BME280;49182;50.788;7.318;2022-12-26T07:57:01;100602.44;;;10.16;100.00
43125;BME280;49182;50.788;7.318;2022-12-26T07:59:49;100609.84;;;10.22;100.00
43125;BME280;49182;50.788;7.318;2022-12-26T08:02:20;100618.47;;;10.24;100.00
43125;BME280;49182;50.788;7.318;2022-12-26T08:04:47;100625.69;;;10.22;100.00
43125;BME280;49182;50.788;7.318;2022-12-26T08:07:14;100626.75;;;10.20;100.00
43125;BME280;49182;50.788;7.318;2022-12-26T08:09:41;100636.34;;;10.21;100.00
43125;BME280;49182;50.788;7.318;2022-12-26T08:12:07;100633.72;;;10.21;100.00
43125;BME280;49182;50.788;7.318;2022-12-26T08:14:35;100601.47;;;9.96;100.00
43125;BME280;49182;50.788;7.318;2022-12-26T08:17:04;100647.75;;;10.21;100.00
43125;BME280;49182;50.788;7.318;2022-12-26T08:19:30;100631.78;;;10.23;100.00
43125;BME280;49182;50.788;7.318;2022-12-26T08:21:58;100624.19;;;10.08;100.00
43125;BME280;49182;50.788;7.318;2022-12-26T08:24:24;100656.22;;;10.25;100.00
43125;BME280;49182;50.788;7.318;2022-12-26T08:26:51;100664.00;;;10.26;100.00
43125;BME280;49182;50.788;7.318;2022-12-26T08:29:18;100634.97;;;10.17;100.00
43125;BME280;49182;50.788;7.318;2022-12-26T08:31:44;100673.47;;;10.29;100.00
43125;BME280;49182;50.788;7.318;2022-12-26T08:34:12;100656.69;;;10.30;100.00
43125;BME280;49182;50.788;7.318;2022-12-26T08:36:39;100615.44;;;10.08;100.00
43125;BME280;49182;50.788;7.318;2022-12-26T08:39:06;100653.22;;;10.29;100.00
43125;BME280;49182;50.788;7.318;2022-12-26T08:41:33;100670.97;;;10.27;100.00
43125;BME280;49182;50.788;7.318;2022-12-26T08:44:00;100659.44;;;10.28;100.00
43125;BME280;49182;50.788;7.318;2022-12-26T08:46:48;100651.41;;;10.30;100.00
43125;BME280;49182;50.788;7.318;2022-12-26T08:49:16;100649.63;;;10.30;100.00
43125;BME280;49182;50.788;7.318;2022-12-26T08:51:43;100657.78;;;10.27;100.00
43125;BME280;49182;50.788;7.318;2022-12-26T08:54:10;100639.13;;;10.19;100.00
43125;BME280;49182;50.788;7.318;2022-12-26T08:56:37;100652.63;;;10.26;100.00
43125;BME280;49182;50.788;7.318;2022-12-26T08:59:03;100656.81;;;10.28;100.00
43125;BME280;49182;50.788;7.318;2022-12-26T09:01:31;100673.38;;;10.30;100.00
43125;BME280;49182;50.788;7.318;2022-12-26T09:04:01;100677.53;;;10.33;100.00
43125;BME280;49182;50.788;7.318;2022-12-26T09:06:32;100676.56;;;10.34;100.00
43125;BME280;49182;50.788;7.318;2022-12-26T09:09:00;100676.44;;;10.35;100.00
43125;BME280;49182;50.788;7.318;2022-12-26T09:11:27;100649.97;;;10.26;100.00
43125;BME280;49182;50.788;7.318;2022-12-26T09:13:55;100659.44;;;10.28;100.00
43125;BME280;49182;50.788;7.318;2022-12-26T09:16:25;100678.44;;;10.43;100.00
43125;BME280;49182;50.788;7.318;2022-12-26T09:18:53;100676.34;;;10.46;100.00
43125;BME280;49182;50.788;7.318;2022-12-26T09:21:20;100679.00;;;10.46;100.00
43125;BME280;49182;50.788;7.318;2022-12-26T09:23:49;100680.97;;;10.54;100.00
43125;BME280;49182;50.788;7.318;2022-12-26T09:26:17;100688.38;;;10.60;100.00
43125;BME280;49182;50.788;7.318;2022-12-26T09:28:45;100693.25;;;10.65;100.00
43125;BME280;49182;50.788;7.318;2022-12-26T09:31:13;100690.19;;;10.69;100.00
43125;BME280;49182;50.788;7.318;2022-12-26T09:33:41;100664.16;;;10.55;100.00
43125;BME280;49182;50.788;7.318;2022-12-26T09:36:10;100697.34;;;10.78;100.00
43125;BME280;49182;50.788;7.318;2022-12-26T09:38:40;100701.91;;;10.76;100.00
43125;BME280;49182;50.788;7.318;2022-12-26T09:41:21;100706.34;;;10.76;100.00
43125;BME280;49182;50.788;7.318;2022-12-26T09:43:59;100721.25;;;10.86;100.00
43125;BME280;49182;50.788;7.318;2022-12-26T09:46:31;100723.50;;;10.91;100.00
43125;BME280;49182;50.788;7.318;2022-12-26T09:49:03;100727.56;;;10.95;100.00
43125;BME280;49182;50.788;7.318;2022-12-26T09:51:33;100730.63;;;11.00;100.00
43125;BME280;49182;50.788;7.318;2022-12-26T09:54:03;100728.69;;;11.02;100.00
43125;BME280;49182;50.788;7.318;2022-12-26T09:56:35;100731.22;;;11.04;100.00
43125;BME280;49182;50.788;7.318;2022-12-26T09:59:23;100730.09;;;11.06;100.00
43125;BME280;49182;50.788;7.318;2022-12-26T10:01:50;100722.31;;;11.05;100.00
43125;BME280;49182;50.788;7.318;2022-12-26T10:04:22;100727.75;;;11.13;100.00
43125;BME280;49182;50.788;7.318;2022-12-26T10:07:03;100743.06;;;11.19;99.68
43125;BME280;49182;50.788;7.318;2022-12-26T10:09:43;100710.19;;;11.02;99.80
43125;BME280;49182;50.788;7.318;2022-12-26T10:12:24;100741.84;;;11.23;99.48
43125;BME280;49182;50.788;7.318;2022-12-26T10:15:04;100735.00;;;11.30;98.33
43125;BME280;49182;50.788;7.318;2022-12-26T10:17:36;100739.63;;;11.28;98.55
43125;BME280;49182;50.788;7.318;2022-12-26T10:20:16;100735.28;;;11.27;99.03
43125;BME280;49182;50.788;7.318;2022-12-26T10:22:59;100743.09;;;11.28;98.97
43125;BME280;49182;50.788;7.318;2022-12-26T10:25:37;100740.88;;;11.33;98.57
43125;BME280;49182;50.788;7.318;2022-12-26T10:28:15;100750.31;;;11.36;98.71
43125;BME280;49182;50.788;7.318;2022-12-26T10:30:44;100740.34;;;11.40;98.73
43125;BME280;49182;50.788;7.318;2022-12-26T10:33:15;100730.31;;;11.43;98.25
43125;BME280;49182;50.788;7.318;2022-12-26T10:35:44;100721.28;;;11.46;98.42
43125;BME280;49182;50.788;7.318;2022-12-26T10:38:15;100725.06;;;11.53;97.79
43125;BME280;49182;50.788;7.318;2022-12-26T10:40:54;100727.00;;;11.51;97.85
43125;BME280;49182;50.788;7.318;2022-12-26T10:43:26;100720.59;;;11.53;98.12
43125;BME280;49182;50.788;7.318;2022-12-26T10:46:12;100726.56;;;11.55;98.19
43125;BME280;49182;50.788;7.318;2022-12-26T10:48:40;100734.38;;;11.57;99.05
43125;BME280;49182;50.788;7.318;2022-12-26T10:51:07;100740.22;;;11.51;97.42
43125;BME280;49182;50.788;7.318;2022-12-26T10:53:39;100739.78;;;11.55;97.97
43125;BME280;49182;50.788;7.318;2022-12-26T10:56:07;100740.66;;;11.65;97.77
43125;BME280;49182;50.788;7.318;2022-12-26T10:58:42;100730.91;;;11.66;96.26
43125;BME280;49182;50.788;7.318;2022-12-26T11:01:39;100730.94;;;11.75;93.56
43125;BME280;49182;50.788;7.318;2022-12-26T11:04:14;100730.66;;;11.88;91.83
43125;BME280;49182;50.788;7.318;2022-12-26T11:06:49;100727.59;;;11.83;85.53
43125;BME280;49182;50.788;7.318;2022-12-26T11:09:26;100726.91;;;11.91;85.20
43125;BME280;49182;50.788;7.318;2022-12-26T11:11:56;100727.03;;;11.99;84.27
43125;BME280;49182;50.788;7.318;2022-12-26T11:14:29;100713.94;;;11.88;82.40
43125;BME280;49182;50.788;7.318;2022-12-26T11:17:03;100723.13;;;11.93;79.97
43125;BME280;49182;50.788;7.318;2022-12-26T11:19:32;100742.50;;;12.03;79.12
43125;BME280;49182;50.788;7.318;2022-12-26T11:22:19;100738.72;;;12.06;78.03
43125;BME280;49182;50.788;7.318;2022-12-26T11:25:01;100726.06;;;12.00;77.89
43125;BME280;49182;50.788;7.318;2022-12-26T11:27:28;100738.19;;;12.02;75.40
43125;BME280;49182;50.788;7.318;2022-12-26T11:30:14;100734.81;;;12.00;75.27
43125;BME280;49182;50.788;7.318;2022-12-26T11:32:44;100726.47;;;12.05;75.07
43125;BME280;49182;50.788;7.318;2022-12-26T11:35:16;100722.13;;;12.13;74.50
43125;BME280;49182;50.788;7.318;2022-12-26T11:37:45;100736.22;;;12.14;73.92
43125;BME280;49182;50.788;7.318;2022-12-26T11:40:16;100713.09;;;12.06;73.27
43125;BME280;49182;50.788;7.318;2022-12-26T11:42:47;100719.94;;;12.09;73.67
43125;BME280;49182;50.788;7.318;2022-12-26T11:45:19;100715.34;;;12.01;74.03
43125;BME280;49182;50.788;7.318;2022-12-26T11:47:47;100711.16;;;12.08;73.79
43125;BME280;49182;50.788;7.318;2022-12-26T11:50:15;100698.31;;;12.04;73.10
43125;BME280;49182;50.788;7.318;2022-12-26T11:52:45;100719.94;;;12.09;73.10
43125;BME280;49182;50.788;7.318;2022-12-26T11:55:25;100726.75;;;12.02;70.94
43125;BME280;49182;50.788;7.318;2022-12-26T11:57:57;100716.56;;;11.97;71.40
43125;BME280;49182;50.788;7.318;2022-12-26T12:00:27;100713.41;;;12.03;71.94
43125;BME280;49182;50.788;7.318;2022-12-26T12:02:54;100723.53;;;11.98;71.31
43125;BME280;49182;50.788;7.318;2022-12-26T12:05:35;100725.78;;;12.03;72.84
43125;BME280;49182;50.788;7.318;2022-12-26T12:08:16;100729.53;;;12.00;71.74
43125;BME280;49182;50.788;7.318;2022-12-26T12:11:14;100721.31;;;11.94;71.30
43125;BME280;49182;50.788;7.318;2022-12-26T12:13:50;100727.16;;;11.97;70.91
43125;BME280;49182;50.788;7.318;2022-12-26T12:16:31;100730.78;;;11.87;69.54
43125;BME280;49182;50.788;7.318;2022-12-26T12:19:04;100723.84;;;11.95;71.36
43125;BME280;49182;50.788;7.318;2022-12-26T12:21:42;100728.28;;;11.95;69.95
43125;BME280;49182;50.788;7.318;2022-12-26T12:24:21;100717.00;;;11.83;69.72
43125;BME280;49182;50.788;7.318;2022-12-26T12:26:59;100711.72;;;11.93;69.37
43125;BME280;49182;50.788;7.318;2022-12-26T12:30:00;100720.91;;;11.89;68.23
43125;BME280;49182;50.788;7.318;2022-12-26T12:32:35;100718.13;;;11.90;69.04
43125;BME280;49182;50.788;7.318;2022-12-26T12:35:22;100725.50;;;11.87;68.79
43125;BME280;49182;50.788;7.318;2022-12-26T12:38:16;100722.59;;;11.90;69.09
43125;BME280;49182;50.788;7.318;2022-12-26T12:40:54;100603.28;;;11.35;69.51
43125;BME280;49182;50.788;7.318;2022-12-26T12:43:29;100677.84;;;11.67;67.48
43125;BME280;49182;50.788;7.318;2022-12-26T12:46:05;100712.28;;;11.96;69.68
43125;BME280;49182;50.788;7.318;2022-12-26T12:51:32;100707.09;;;12.14;70.12
43125;BME280;49182;50.788;7.318;2022-12-26T12:57:13;100696.94;;;12.09;68.54
43125;BME280;49182;50.788;7.318;2022-12-26T12:59:50;100676.19;;;12.05;69.45
43125;BME280;49182;50.788;7.318;2022-12-26T13:02:35;100706.78;;;12.27;69.13
43125;BME280;49182;50.788;7.318;2022-12-26T13:05:18;100693.84;;;12.24;69.16
43125;BME280;49182;50.788;7.318;2022-12-26T13:07:50;100706.78;;;12.27;69.31
43125;BME280;49182;50.788;7.318;2022-12-26T13:10:20;100703.31;;;12.26;69.54
43125;BME280;49182;50.788;7.318;2022-12-26T13:12:49;100706.78;;;12.27;69.51
43125;BME280;49182;50.788;7.318;2022-12-26T13:15:25;100704.41;;;12.24;69.29
43125;BME280;49182;50.788;7.318;2022-12-26T13:17:58;100703.31;;;12.16;67.87
43125;BME280;49182;50.788;7.318;2022-12-26T13:20:33;100686.75;;;12.05;68.85